Port Allegany, Pennsylvania
Current Conditions -  °F | °C
As of 1:53 PM on Friday 24 Oct 2014 (Local Time) from KBFD Reporting Station
Clear Clear  
Wind Chill: 55°   Ceiling: Unl
Heat Index: 55°   Visibility: 10mi
Dew Point: 34°   Wind: 10mph
Humidity: 45%   Direction: 310°NW
Pressure: 29.98"   Gusts: NA
Location:  41.81°N, 78.28°W
Report Text: KBFD 241753Z AUTO 31009KT 10SM CLR 13/01 A2998 RMK AO2 SLP157 T01280011 10128 20050 58011
Loading
Personal Weather Stations






























Interactive Weather Map
Tropical Storm Tracking
New forecast layout! Learn more

10-Day Weather Forecast

Advertisements
Track Severe Weather on mobile